sensor_id;sensor_type;location;lat;lon;timestamp;P1;durP1;ratioP1;P2;durP2;ratioP2
1380;SDS011;684;48.342;10.096;2022-12-18T00:02:02;80.63;;;37.67;;
1380;SDS011;684;48.342;10.096;2022-12-18T00:04:28;82.53;;;35.90;;
1380;SDS011;684;48.342;10.096;2022-12-18T00:06:55;81.90;;;34.53;;
1380;SDS011;684;48.342;10.096;2022-12-18T00:09:22;93.70;;;36.77;;
1380;SDS011;684;48.342;10.096;2022-12-18T00:11:49;77.60;;;34.10;;
1380;SDS011;684;48.342;10.096;2022-12-18T00:14:16;100.40;;;38.80;;
1380;SDS011;684;48.342;10.096;2022-12-18T00:16:43;84.90;;;36.37;;
1380;SDS011;684;48.342;10.096;2022-12-18T00:19:12;95.70;;;36.73;;
1380;SDS011;684;48.342;10.096;2022-12-18T00:21:40;83.57;;;37.13;;
1380;SDS011;684;48.342;10.096;2022-12-18T00:24:08;81.47;;;34.67;;
1380;SDS011;684;48.342;10.096;2022-12-18T00:26:35;83.87;;;36.17;;
1380;SDS011;684;48.342;10.096;2022-12-18T00:29:05;85.33;;;37.40;;
1380;SDS011;684;48.342;10.096;2022-12-18T00:31:33;83.40;;;37.87;;
1380;SDS011;684;48.342;10.096;2022-12-18T00:34:01;87.57;;;36.80;;
1380;SDS011;684;48.342;10.096;2022-12-18T00:36:30;84.43;;;37.50;;
1380;SDS011;684;48.342;10.096;2022-12-18T00:38:58;84.13;;;37.83;;
1380;SDS011;684;48.342;10.096;2022-12-18T00:41:26;87.50;;;36.00;;
1380;SDS011;684;48.342;10.096;2022-12-18T00:44:12;96.13;;;36.37;;
1380;SDS011;684;48.342;10.096;2022-12-18T00:46:40;83.13;;;36.73;;
1380;SDS011;684;48.342;10.096;2022-12-18T00:49:07;74.93;;;34.63;;
1380;SDS011;684;48.342;10.096;2022-12-18T00:51:35;77.77;;;32.40;;
1380;SDS011;684;48.342;10.096;2022-12-18T00:54:02;81.07;;;34.17;;
1380;SDS011;684;48.342;10.096;2022-12-18T00:56:29;88.97;;;37.33;;
1380;SDS011;684;48.342;10.096;2022-12-18T00:58:55;86.87;;;37.37;;
1380;SDS011;684;48.342;10.096;2022-12-18T01:01:22;84.60;;;35.87;;
1380;SDS011;684;48.342;10.096;2022-12-18T01:03:49;90.37;;;35.40;;
1380;SDS011;684;48.342;10.096;2022-12-18T01:06:16;74.03;;;37.40;;
1380;SDS011;684;48.342;10.096;2022-12-18T01:08:44;75.80;;;33.63;;
1380;SDS011;684;48.342;10.096;2022-12-18T01:11:13;81.77;;;38.73;;
1380;SDS011;684;48.342;10.096;2022-12-18T01:13:41;78.40;;;36.13;;
1380;SDS011;684;48.342;10.096;2022-12-18T01:16:10;74.07;;;33.23;;
1380;SDS011;684;48.342;10.096;2022-12-18T01:18:38;84.50;;;37.90;;
1380;SDS011;684;48.342;10.096;2022-12-18T01:21:06;89.90;;;35.33;;
1380;SDS011;684;48.342;10.096;2022-12-18T01:23:33;77.10;;;36.93;;
1380;SDS011;684;48.342;10.096;2022-12-18T01:26:05;79.00;;;32.87;;
1380;SDS011;684;48.342;10.096;2022-12-18T01:28:33;78.27;;;35.50;;
1380;SDS011;684;48.342;10.096;2022-12-18T01:31:09;79.27;;;33.63;;
1380;SDS011;684;48.342;10.096;2022-12-18T01:33:36;87.43;;;34.57;;
1380;SDS011;684;48.342;10.096;2022-12-18T01:36:03;86.70;;;38.00;;
1380;SDS011;684;48.342;10.096;2022-12-18T01:38:31;81.63;;;35.10;;
1380;SDS011;684;48.342;10.096;2022-12-18T01:40:57;78.73;;;36.10;;
1380;SDS011;684;48.342;10.096;2022-12-18T01:46:18;80.53;;;36.00;;
1380;SDS011;684;48.342;10.096;2022-12-18T01:48:47;87.23;;;36.97;;
1380;SDS011;684;48.342;10.096;2022-12-18T01:51:16;89.17;;;38.43;;
1380;SDS011;684;48.342;10.096;2022-12-18T01:53:43;85.00;;;37.27;;
1380;SDS011;684;48.342;10.096;2022-12-18T01:56:12;78.37;;;35.27;;
1380;SDS011;684;48.342;10.096;2022-12-18T01:58:43;88.27;;;36.40;;
1380;SDS011;684;48.342;10.096;2022-12-18T02:01:18;86.53;;;38.90;;
1380;SDS011;684;48.342;10.096;2022-12-18T02:03:47;87.10;;;35.60;;
1380;SDS011;684;48.342;10.096;2022-12-18T02:06:15;77.33;;;35.80;;
1380;SDS011;684;48.342;10.096;2022-12-18T02:08:46;87.80;;;37.33;;
1380;SDS011;684;48.342;10.096;2022-12-18T02:11:21;75.43;;;35.10;;
1380;SDS011;684;48.342;10.096;2022-12-18T02:13:59;75.53;;;33.73;;
1380;SDS011;684;48.342;10.096;2022-12-18T02:16:34;85.60;;;34.47;;
1380;SDS011;684;48.342;10.096;2022-12-18T02:19:06;78.10;;;35.00;;
1380;SDS011;684;48.342;10.096;2022-12-18T02:21:49;83.03;;;36.83;;
1380;SDS011;684;48.342;10.096;2022-12-18T02:24:25;76.90;;;34.37;;
1380;SDS011;684;48.342;10.096;2022-12-18T02:27:01;85.97;;;34.60;;
1380;SDS011;684;48.342;10.096;2022-12-18T02:29:32;72.83;;;33.70;;
1380;SDS011;684;48.342;10.096;2022-12-18T02:32:03;77.50;;;34.87;;
1380;SDS011;684;48.342;10.096;2022-12-18T02:34:36;79.87;;;35.30;;
1380;SDS011;684;48.342;10.096;2022-12-18T02:37:05;87.80;;;36.60;;
1380;SDS011;684;48.342;10.096;2022-12-18T02:39:36;81.30;;;37.20;;
1380;SDS011;684;48.342;10.096;2022-12-18T02:42:07;78.03;;;35.83;;
1380;SDS011;684;48.342;10.096;2022-12-18T02:44:35;85.80;;;33.23;;
1380;SDS011;684;48.342;10.096;2022-12-18T02:47:08;75.13;;;34.07;;
1380;SDS011;684;48.342;10.096;2022-12-18T02:49:39;81.37;;;37.60;;
1380;SDS011;684;48.342;10.096;2022-12-18T02:52:12;79.53;;;37.03;;
1380;SDS011;684;48.342;10.096;2022-12-18T02:54:50;98.30;;;35.93;;
1380;SDS011;684;48.342;10.096;2022-12-18T02:57:28;79.27;;;34.00;;
1380;SDS011;684;48.342;10.096;2022-12-18T03:00:02;71.67;;;34.27;;
1380;SDS011;684;48.342;10.096;2022-12-18T03:02:33;81.93;;;37.20;;
1380;SDS011;684;48.342;10.096;2022-12-18T03:05:08;87.80;;;37.33;;
1380;SDS011;684;48.342;10.096;2022-12-18T03:07:40;92.43;;;37.80;;
1380;SDS011;684;48.342;10.096;2022-12-18T03:10:12;82.63;;;37.70;;
1380;SDS011;684;48.342;10.096;2022-12-18T03:12:44;77.60;;;36.70;;
1380;SDS011;684;48.342;10.096;2022-12-18T03:15:16;80.13;;;34.53;;
1380;SDS011;684;48.342;10.096;2022-12-18T03:17:48;81.43;;;35.37;;
1380;SDS011;684;48.342;10.096;2022-12-18T03:20:20;71.37;;;34.70;;
1380;SDS011;684;48.342;10.096;2022-12-18T03:22:50;78.33;;;34.17;;
1380;SDS011;684;48.342;10.096;2022-12-18T03:25:20;89.07;;;36.60;;
1380;SDS011;684;48.342;10.096;2022-12-18T03:27:51;84.30;;;34.53;;
1380;SDS011;684;48.342;10.096;2022-12-18T03:30:21;86.23;;;37.93;;
1380;SDS011;684;48.342;10.096;2022-12-18T03:32:48;88.10;;;38.70;;
1380;SDS011;684;48.342;10.096;2022-12-18T03:35:23;89.37;;;37.57;;
1380;SDS011;684;48.342;10.096;2022-12-18T03:37:55;93.60;;;38.10;;
1380;SDS011;684;48.342;10.096;2022-12-18T03:40:23;91.20;;;38.87;;
1380;SDS011;684;48.342;10.096;2022-12-18T03:42:57;86.17;;;38.10;;
1380;SDS011;684;48.342;10.096;2022-12-18T03:45:30;84.03;;;36.93;;
1380;SDS011;684;48.342;10.096;2022-12-18T03:48:01;82.83;;;36.83;;
1380;SDS011;684;48.342;10.096;2022-12-18T03:50:36;82.03;;;36.53;;
1380;SDS011;684;48.342;10.096;2022-12-18T03:53:10;86.40;;;37.07;;
1380;SDS011;684;48.342;10.096;2022-12-18T03:55:45;89.80;;;37.23;;
1380;SDS011;684;48.342;10.096;2022-12-18T03:58:15;78.10;;;36.60;;
1380;SDS011;684;48.342;10.096;2022-12-18T04:00:45;78.00;;;35.60;;
1380;SDS011;684;48.342;10.096;2022-12-18T04:03:14;85.87;;;33.60;;
1380;SDS011;684;48.342;10.096;2022-12-18T04:05:43;84.63;;;35.30;;
1380;SDS011;684;48.342;10.096;2022-12-18T04:08:13;84.93;;;36.97;;
1380;SDS011;684;48.342;10.096;2022-12-18T04:10:40;79.87;;;36.40;;
1380;SDS011;684;48.342;10.096;2022-12-18T04:13:07;83.80;;;35.73;;
1380;SDS011;684;48.342;10.096;2022-12-18T04:15:36;85.77;;;35.73;;
1380;SDS011;684;48.342;10.096;2022-12-18T04:18:04;81.17;;;35.27;;
1380;SDS011;684;48.342;10.096;2022-12-18T04:20:31;81.50;;;33.37;;
1380;SDS011;684;48.342;10.096;2022-12-18T04:22:58;76.57;;;33.97;;
1380;SDS011;684;48.342;10.096;2022-12-18T04:25:24;73.60;;;32.10;;
1380;SDS011;684;48.342;10.096;2022-12-18T04:27:51;87.27;;;33.87;;
1380;SDS011;684;48.342;10.096;2022-12-18T04:30:18;80.07;;;33.73;;
1380;SDS011;684;48.342;10.096;2022-12-18T04:32:46;78.67;;;34.17;;
1380;SDS011;684;48.342;10.096;2022-12-18T04:35:13;80.70;;;35.13;;
1380;SDS011;684;48.342;10.096;2022-12-18T04:37:39;78.80;;;34.53;;
1380;SDS011;684;48.342;10.096;2022-12-18T04:40:06;75.97;;;34.63;;
1380;SDS011;684;48.342;10.096;2022-12-18T04:42:34;81.83;;;35.53;;
1380;SDS011;684;48.342;10.096;2022-12-18T04:45:01;86.87;;;33.57;;
1380;SDS011;684;48.342;10.096;2022-12-18T04:47:27;79.00;;;32.13;;
1380;SDS011;684;48.342;10.096;2022-12-18T04:49:55;88.47;;;37.37;;
1380;SDS011;684;48.342;10.096;2022-12-18T04:52:22;80.90;;;35.57;;
1380;SDS011;684;48.342;10.096;2022-12-18T04:54:49;74.20;;;31.73;;
1380;SDS011;684;48.342;10.096;2022-12-18T04:57:16;75.67;;;32.23;;
1380;SDS011;684;48.342;10.096;2022-12-18T04:59:44;76.47;;;34.80;;
1380;SDS011;684;48.342;10.096;2022-12-18T05:02:11;88.33;;;34.57;;
1380;SDS011;684;48.342;10.096;2022-12-18T05:04:37;83.70;;;33.77;;
1380;SDS011;684;48.342;10.096;2022-12-18T05:07:06;91.77;;;33.60;;
1380;SDS011;684;48.342;10.096;2022-12-18T05:09:33;86.03;;;31.57;;
1380;SDS011;684;48.342;10.096;2022-12-18T05:12:00;79.30;;;35.30;;
1380;SDS011;684;48.342;10.096;2022-12-18T05:14:27;78.00;;;35.60;;
1380;SDS011;684;48.342;10.096;2022-12-18T05:16:54;85.63;;;32.10;;
1380;SDS011;684;48.342;10.096;2022-12-18T05:19:21;86.87;;;31.77;;
1380;SDS011;684;48.342;10.096;2022-12-18T05:21:48;86.17;;;33.23;;
1380;SDS011;684;48.342;10.096;2022-12-18T05:24:16;78.57;;;33.97;;
1380;SDS011;684;48.342;10.096;2022-12-18T05:26:43;93.00;;;34.70;;
1380;SDS011;684;48.342;10.096;2022-12-18T05:29:10;76.07;;;33.17;;
1380;SDS011;684;48.342;10.096;2022-12-18T05:31:37;90.37;;;36.33;;
1380;SDS011;684;48.342;10.096;2022-12-18T05:34:04;85.50;;;34.53;;
1380;SDS011;684;48.342;10.096;2022-12-18T05:36:31;86.60;;;36.13;;
1380;SDS011;684;48.342;10.096;2022-12-18T05:38:58;89.87;;;36.80;;
1380;SDS011;684;48.342;10.096;2022-12-18T05:41:27;90.03;;;34.63;;
1380;SDS011;684;48.342;10.096;2022-12-18T05:43:54;92.50;;;35.03;;
1380;SDS011;684;48.342;10.096;2022-12-18T05:46:21;81.03;;;34.07;;
1380;SDS011;684;48.342;10.096;2022-12-18T05:48:49;85.50;;;34.03;;
1380;SDS011;684;48.342;10.096;2022-12-18T05:51:18;92.83;;;34.60;;
1380;SDS011;684;48.342;10.096;2022-12-18T05:53:47;80.37;;;32.43;;
1380;SDS011;684;48.342;10.096;2022-12-18T05:56:15;84.43;;;34.80;;
1380;SDS011;684;48.342;10.096;2022-12-18T05:58:45;86.90;;;33.20;;
1380;SDS011;684;48.342;10.096;2022-12-18T06:01:14;97.83;;;36.17;;
1380;SDS011;684;48.342;10.096;2022-12-18T06:03:42;93.40;;;34.10;;
1380;SDS011;684;48.342;10.096;2022-12-18T06:06:13;99.30;;;37.00;;
1380;SDS011;684;48.342;10.096;2022-12-18T06:08:41;96.57;;;36.10;;
1380;SDS011;684;48.342;10.096;2022-12-18T06:11:08;94.47;;;35.70;;
1380;SDS011;684;48.342;10.096;2022-12-18T06:13:35;98.20;;;35.30;;
1380;SDS011;684;48.342;10.096;2022-12-18T06:16:04;92.77;;;37.50;;
1380;SDS011;684;48.342;10.096;2022-12-18T06:18:31;94.97;;;36.23;;
1380;SDS011;684;48.342;10.096;2022-12-18T06:20:59;88.97;;;33.03;;
1380;SDS011;684;48.342;10.096;2022-12-18T06:23:26;93.47;;;36.60;;
1380;SDS011;684;48.342;10.096;2022-12-18T06:25:53;89.40;;;34.83;;
1380;SDS011;684;48.342;10.096;2022-12-18T06:28:20;101.93;;;34.97;;
1380;SDS011;684;48.342;10.096;2022-12-18T06:30:47;94.90;;;36.73;;
1380;SDS011;684;48.342;10.096;2022-12-18T06:33:16;96.40;;;37.00;;
1380;SDS011;684;48.342;10.096;2022-12-18T06:35:43;95.63;;;38.07;;
1380;SDS011;684;48.342;10.096;2022-12-18T06:38:10;93.67;;;41.10;;
1380;SDS011;684;48.342;10.096;2022-12-18T06:40:37;87.90;;;36.63;;
1380;SDS011;684;48.342;10.096;2022-12-18T06:43:04;98.90;;;37.53;;
1380;SDS011;684;48.342;10.096;2022-12-18T06:45:31;85.97;;;34.90;;
1380;SDS011;684;48.342;10.096;2022-12-18T06:47:58;84.97;;;36.43;;
1380;SDS011;684;48.342;10.096;2022-12-18T06:50:26;96.77;;;37.77;;
1380;SDS011;684;48.342;10.096;2022-12-18T06:52:53;87.50;;;35.80;;
1380;SDS011;684;48.342;10.096;2022-12-18T06:55:20;93.13;;;36.77;;
1380;SDS011;684;48.342;10.096;2022-12-18T06:57:48;98.37;;;35.57;;
1380;SDS011;684;48.342;10.096;2022-12-18T07:00:14;94.90;;;37.60;;
1380;SDS011;684;48.342;10.096;2022-12-18T07:02:41;98.63;;;38.47;;
1380;SDS011;684;48.342;10.096;2022-12-18T07:05:08;96.37;;;38.23;;
1380;SDS011;684;48.342;10.096;2022-12-18T07:07:36;87.27;;;35.67;;
1380;SDS011;684;48.342;10.096;2022-12-18T07:10:04;100.80;;;40.40;;
1380;SDS011;684;48.342;10.096;2022-12-18T07:12:31;106.43;;;39.40;;
1380;SDS011;684;48.342;10.096;2022-12-18T07:14:57;103.73;;;42.70;;
1380;SDS011;684;48.342;10.096;2022-12-18T07:17:24;115.33;;;44.17;;
1380;SDS011;684;48.342;10.096;2022-12-18T07:19:51;98.97;;;39.60;;
1380;SDS011;684;48.342;10.096;2022-12-18T07:22:18;107.97;;;41.93;;
1380;SDS011;684;48.342;10.096;2022-12-18T07:24:46;92.77;;;40.33;;
1380;SDS011;684;48.342;10.096;2022-12-18T07:27:12;88.90;;;38.47;;
1380;SDS011;684;48.342;10.096;2022-12-18T07:29:39;92.90;;;37.33;;
1380;SDS011;684;48.342;10.096;2022-12-18T07:32:06;95.80;;;38.57;;
1380;SDS011;684;48.342;10.096;2022-12-18T07:34:33;97.53;;;40.50;;
1380;SDS011;684;48.342;10.096;2022-12-18T07:37:00;109.87;;;39.33;;
1380;SDS011;684;48.342;10.096;2022-12-18T07:39:27;101.33;;;39.40;;
1380;SDS011;684;48.342;10.096;2022-12-18T07:41:55;83.53;;;35.70;;
1380;SDS011;684;48.342;10.096;2022-12-18T07:44:39;108.63;;;37.90;;
1380;SDS011;684;48.342;10.096;2022-12-18T07:47:06;89.80;;;35.53;;
1380;SDS011;684;48.342;10.096;2022-12-18T07:49:33;85.53;;;36.27;;
1380;SDS011;684;48.342;10.096;2022-12-18T07:52:00;86.27;;;37.73;;
1380;SDS011;684;48.342;10.096;2022-12-18T07:54:26;86.13;;;34.80;;
1380;SDS011;684;48.342;10.096;2022-12-18T07:56:55;87.17;;;38.80;;
1380;SDS011;684;48.342;10.096;2022-12-18T07:59:22;92.33;;;37.80;;
1380;SDS011;684;48.342;10.096;2022-12-18T08:01:49;96.27;;;35.60;;
1380;SDS011;684;48.342;10.096;2022-12-18T08:04:15;92.00;;;36.63;;
1380;SDS011;684;48.342;10.096;2022-12-18T08:06:42;77.10;;;31.70;;
1380;SDS011;684;48.342;10.096;2022-12-18T08:09:09;88.50;;;33.67;;
1380;SDS011;684;48.342;10.096;2022-12-18T08:11:36;81.10;;;35.87;;
1380;SDS011;684;48.342;10.096;2022-12-18T08:14:04;76.83;;;34.90;;
1380;SDS011;684;48.342;10.096;2022-12-18T08:16:31;88.73;;;34.73;;
1380;SDS011;684;48.342;10.096;2022-12-18T08:18:58;83.37;;;37.63;;
1380;SDS011;684;48.342;10.096;2022-12-18T08:21:26;92.57;;;37.77;;
1380;SDS011;684;48.342;10.096;2022-12-18T08:23:54;77.83;;;34.60;;
1380;SDS011;684;48.342;10.096;2022-12-18T08:26:22;87.53;;;36.83;;
1380;SDS011;684;48.342;10.096;2022-12-18T08:28:50;83.60;;;34.97;;
1380;SDS011;684;48.342;10.096;2022-12-18T08:31:20;86.50;;;35.63;;
1380;SDS011;684;48.342;10.096;2022-12-18T08:33:48;72.70;;;32.03;;
1380;SDS011;684;48.342;10.096;2022-12-18T08:36:15;83.70;;;35.27;;
1380;SDS011;684;48.342;10.096;2022-12-18T08:38:42;84.27;;;36.70;;
1380;SDS011;684;48.342;10.096;2022-12-18T08:41:09;79.90;;;35.83;;
1380;SDS011;684;48.342;10.096;2022-12-18T08:43:38;73.10;;;32.40;;
1380;SDS011;684;48.342;10.096;2022-12-18T08:46:24;74.87;;;32.80;;
1380;SDS011;684;48.342;10.096;2022-12-18T08:48:53;83.10;;;34.87;;
1380;SDS011;684;48.342;10.096;2022-12-18T08:51:20;84.93;;;38.10;;
1380;SDS011;684;48.342;10.096;2022-12-18T08:53:47;85.03;;;33.67;;
1380;SDS011;684;48.342;10.096;2022-12-18T08:56:14;74.00;;;32.73;;
1380;SDS011;684;48.342;10.096;2022-12-18T08:58:41;79.03;;;34.07;;
1380;SDS011;684;48.342;10.096;2022-12-18T09:01:09;75.27;;;31.73;;
1380;SDS011;684;48.342;10.096;2022-12-18T09:03:38;76.40;;;33.40;;
1380;SDS011;684;48.342;10.096;2022-12-18T09:06:05;76.27;;;33.67;;
1380;SDS011;684;48.342;10.096;2022-12-18T09:08:32;69.63;;;29.33;;
1380;SDS011;684;48.342;10.096;2022-12-18T09:10:59;66.43;;;27.93;;
1380;SDS011;684;48.342;10.096;2022-12-18T09:13:26;74.03;;;32.27;;
1380;SDS011;684;48.342;10.096;2022-12-18T09:15:54;67.87;;;29.93;;
1380;SDS011;684;48.342;10.096;2022-12-18T09:18:22;68.73;;;31.00;;
1380;SDS011;684;48.342;10.096;2022-12-18T09:20:51;64.80;;;31.17;;
1380;SDS011;684;48.342;10.096;2022-12-18T09:23:18;62.53;;;29.27;;
1380;SDS011;684;48.342;10.096;2022-12-18T09:25:45;65.30;;;30.80;;
1380;SDS011;684;48.342;10.096;2022-12-18T09:28:12;69.60;;;30.43;;
1380;SDS011;684;48.342;10.096;2022-12-18T09:30:40;72.63;;;33.00;;
1380;SDS011;684;48.342;10.096;2022-12-18T09:33:09;67.13;;;30.93;;
1380;SDS011;684;48.342;10.096;2022-12-18T09:35:39;60.23;;;28.57;;
1380;SDS011;684;48.342;10.096;2022-12-18T09:38:08;53.47;;;26.20;;
1380;SDS011;684;48.342;10.096;2022-12-18T09:40:39;60.10;;;28.47;;
1380;SDS011;684;48.342;10.096;2022-12-18T09:43:09;49.97;;;25.67;;
1380;SDS011;684;48.342;10.096;2022-12-18T09:45:42;60.13;;;27.83;;
1380;SDS011;684;48.342;10.096;2022-12-18T09:48:11;45.43;;;22.03;;
1380;SDS011;684;48.342;10.096;2022-12-18T09:50:45;45.60;;;21.90;;
1380;SDS011;684;48.342;10.096;2022-12-18T09:53:16;42.43;;;22.40;;
1380;SDS011;684;48.342;10.096;2022-12-18T09:55:46;39.23;;;19.70;;
1380;SDS011;684;48.342;10.096;2022-12-18T09:58:16;37.47;;;19.40;;
1380;SDS011;684;48.342;10.096;2022-12-18T10:00:48;42.67;;;20.10;;
1380;SDS011;684;48.342;10.096;2022-12-18T10:03:17;44.50;;;23.60;;
1380;SDS011;684;48.342;10.096;2022-12-18T10:05:46;45.87;;;20.50;;
1380;SDS011;684;48.342;10.096;2022-12-18T10:08:24;38.70;;;18.77;;
1380;SDS011;684;48.342;10.096;2022-12-18T10:11:12;34.87;;;17.83;;
1380;SDS011;684;48.342;10.096;2022-12-18T10:13:54;43.63;;;18.67;;
1380;SDS011;684;48.342;10.096;2022-12-18T10:16:27;44.50;;;21.43;;
1380;SDS011;684;48.342;10.096;2022-12-18T10:19:05;44.37;;;19.90;;
1380;SDS011;684;48.342;10.096;2022-12-18T10:21:44;38.50;;;19.93;;
1380;SDS011;684;48.342;10.096;2022-12-18T10:24:20;51.33;;;23.50;;
1380;SDS011;684;48.342;10.096;2022-12-18T10:26:55;48.30;;;22.60;;
1380;SDS011;684;48.342;10.096;2022-12-18T10:29:26;46.03;;;21.77;;
1380;SDS011;684;48.342;10.096;2022-12-18T10:31:53;47.73;;;23.20;;
1380;SDS011;684;48.342;10.096;2022-12-18T10:34:20;49.50;;;21.60;;
1380;SDS011;684;48.342;10.096;2022-12-18T10:36:47;42.00;;;19.70;;
1380;SDS011;684;48.342;10.096;2022-12-18T10:39:14;45.80;;;21.00;;
1380;SDS011;684;48.342;10.096;2022-12-18T10:41:44;42.60;;;20.87;;
1380;SDS011;684;48.342;10.096;2022-12-18T10:44:12;47.73;;;24.17;;
1380;SDS011;684;48.342;10.096;2022-12-18T10:46:43;44.10;;;22.27;;
1380;SDS011;684;48.342;10.096;2022-12-18T10:49:21;53.20;;;25.13;;
1380;SDS011;684;48.342;10.096;2022-12-18T10:51:50;50.47;;;23.90;;
1380;SDS011;684;48.342;10.096;2022-12-18T10:54:29;46.30;;;22.33;;
1380;SDS011;684;48.342;10.096;2022-12-18T10:59:56;40.10;;;17.90;;
1380;SDS011;684;48.342;10.096;2022-12-18T11:02:25;43.90;;;19.53;;
1380;SDS011;684;48.342;10.096;2022-12-18T11:04:54;43.63;;;21.17;;
1380;SDS011;684;48.342;10.096;2022-12-18T11:07:21;40.33;;;20.83;;
1380;SDS011;684;48.342;10.096;2022-12-18T11:09:59;40.70;;;20.07;;
1380;SDS011;684;48.342;10.096;2022-12-18T11:12:28;35.90;;;18.73;;
1380;SDS011;684;48.342;10.096;2022-12-18T11:14:57;38.63;;;19.67;;
1380;SDS011;684;48.342;10.096;2022-12-18T11:17:27;35.53;;;18.37;;
1380;SDS011;684;48.342;10.096;2022-12-18T11:19:56;38.80;;;20.07;;
1380;SDS011;684;48.342;10.096;2022-12-18T11:22:24;38.80;;;19.80;;
1380;SDS011;684;48.342;10.096;2022-12-18T11:24:54;34.50;;;17.40;;
1380;SDS011;684;48.342;10.096;2022-12-18T11:27:23;38.20;;;18.53;;
1380;SDS011;684;48.342;10.096;2022-12-18T11:29:51;38.80;;;17.43;;
1380;SDS011;684;48.342;10.096;2022-12-18T11:32:30;40.53;;;19.67;;
1380;SDS011;684;48.342;10.096;2022-12-18T11:35:01;44.87;;;19.43;;
1380;SDS011;684;48.342;10.096;2022-12-18T11:37:35;40.47;;;19.63;;
1380;SDS011;684;48.342;10.096;2022-12-18T11:40:03;39.23;;;20.23;;
1380;SDS011;684;48.342;10.096;2022-12-18T11:42:38;38.13;;;19.67;;
1380;SDS011;684;48.342;10.096;2022-12-18T11:45:20;37.33;;;20.90;;
1380;SDS011;684;48.342;10.096;2022-12-18T11:47:54;36.33;;;17.20;;
1380;SDS011;684;48.342;10.096;2022-12-18T11:50:25;36.00;;;17.47;;
1380;SDS011;684;48.342;10.096;2022-12-18T11:52:55;36.47;;;17.23;;
1380;SDS011;684;48.342;10.096;2022-12-18T11:55:24;39.40;;;18.97;;
1380;SDS011;684;48.342;10.096;2022-12-18T11:58:01;38.90;;;19.70;;
1380;SDS011;684;48.342;10.096;2022-12-18T12:00:36;38.73;;;18.00;;
1380;SDS011;684;48.342;10.096;2022-12-18T12:03:35;39.60;;;18.63;;
1380;SDS011;684;48.342;10.096;2022-12-18T12:06:14;32.63;;;17.80;;
1380;SDS011;684;48.342;10.096;2022-12-18T12:08:50;37.93;;;18.67;;
1380;SDS011;684;48.342;10.096;2022-12-18T12:11:28;38.50;;;19.53;;
1380;SDS011;684;48.342;10.096;2022-12-18T12:14:14;32.47;;;17.60;;
1380;SDS011;684;48.342;10.096;2022-12-18T12:16:54;37.60;;;17.60;;
1380;SDS011;684;48.342;10.096;2022-12-18T12:19:29;34.13;;;18.23;;
1380;SDS011;684;48.342;10.096;2022-12-18T12:22:04;38.13;;;17.77;;
1380;SDS011;684;48.342;10.096;2022-12-18T12:24:39;42.07;;;19.50;;
1380;SDS011;684;48.342;10.096;2022-12-18T12:27:16;32.60;;;17.10;;
1380;SDS011;684;48.342;10.096;2022-12-18T12:29:55;37.57;;;18.60;;
1380;SDS011;684;48.342;10.096;2022-12-18T12:32:32;36.37;;;18.37;;
1380;SDS011;684;48.342;10.096;2022-12-18T12:35:10;33.87;;;15.80;;
1380;SDS011;684;48.342;10.096;2022-12-18T12:37:45;36.53;;;17.10;;
1380;SDS011;684;48.342;10.096;2022-12-18T12:40:20;33.50;;;17.20;;
1380;SDS011;684;48.342;10.096;2022-12-18T12:42:51;32.00;;;16.13;;
1380;SDS011;684;48.342;10.096;2022-12-18T12:45:41;36.67;;;18.40;;
1380;SDS011;684;48.342;10.096;2022-12-18T12:48:18;35.53;;;16.37;;
1380;SDS011;684;48.342;10.096;2022-12-18T12:50:49;41.43;;;18.47;;
1380;SDS011;684;48.342;10.096;2022-12-18T12:53:20;38.70;;;18.87;;
1380;SDS011;684;48.342;10.096;2022-12-18T12:55:52;38.10;;;19.00;;
1380;SDS011;684;48.342;10.096;2022-12-18T12:58:22;37.53;;;18.50;;
1380;SDS011;684;48.342;10.096;2022-12-18T13:01:00;40.00;;;18.50;;
1380;SDS011;684;48.342;10.096;2022-12-18T13:03:37;34.20;;;18.17;;
1380;SDS011;684;48.342;10.096;2022-12-18T13:06:12;44.23;;;19.90;;
1380;SDS011;684;48.342;10.096;2022-12-18T13:08:52;42.70;;;20.13;;
1380;SDS011;684;48.342;10.096;2022-12-18T13:11:37;35.97;;;18.80;;
1380;SDS011;684;48.342;10.096;2022-12-18T13:14:25;38.37;;;20.10;;
1380;SDS011;684;48.342;10.096;2022-12-18T13:20:04;46.27;;;19.60;;
1380;SDS011;684;48.342;10.096;2022-12-18T13:22:36;47.30;;;22.63;;
1380;SDS011;684;48.342;10.096;2022-12-18T13:28:01;44.57;;;21.00;;
1380;SDS011;684;48.342;10.096;2022-12-18T13:33:37;45.47;;;19.90;;
1380;SDS011;684;48.342;10.096;2022-12-18T13:36:12;40.97;;;20.83;;
1380;SDS011;684;48.342;10.096;2022-12-18T13:41:37;41.47;;;17.77;;
1380;SDS011;684;48.342;10.096;2022-12-18T13:44:10;37.70;;;17.53;;
1380;SDS011;684;48.342;10.096;2022-12-18T13:46:42;40.40;;;17.77;;
1380;SDS011;684;48.342;10.096;2022-12-18T13:49:16;40.50;;;18.27;;
1380;SDS011;684;48.342;10.096;2022-12-18T13:51:50;42.70;;;20.43;;
1380;SDS011;684;48.342;10.096;2022-12-18T13:54:19;36.03;;;18.17;;
1380;SDS011;684;48.342;10.096;2022-12-18T13:56:50;33.80;;;17.10;;
1380;SDS011;684;48.342;10.096;2022-12-18T13:59:18;39.70;;;19.60;;
1380;SDS011;684;48.342;10.096;2022-12-18T14:01:48;41.00;;;18.03;;
1380;SDS011;684;48.342;10.096;2022-12-18T14:04:19;40.17;;;19.33;;
1380;SDS011;684;48.342;10.096;2022-12-18T14:06:51;35.77;;;16.70;;
1380;SDS011;684;48.342;10.096;2022-12-18T14:09:24;40.67;;;17.73;;
1380;SDS011;684;48.342;10.096;2022-12-18T14:11:54;35.90;;;18.47;;
1380;SDS011;684;48.342;10.096;2022-12-18T14:14:44;41.40;;;20.80;;
1380;SDS011;684;48.342;10.096;2022-12-18T14:17:13;39.97;;;19.60;;
1380;SDS011;684;48.342;10.096;2022-12-18T14:19:42;40.50;;;19.47;;
1380;SDS011;684;48.342;10.096;2022-12-18T14:22:18;39.87;;;17.87;;
1380;SDS011;684;48.342;10.096;2022-12-18T14:24:46;33.83;;;16.70;;
1380;SDS011;684;48.342;10.096;2022-12-18T14:27:20;34.20;;;17.10;;
1380;SDS011;684;48.342;10.096;2022-12-18T14:29:49;38.07;;;16.60;;
1380;SDS011;684;48.342;10.096;2022-12-18T14:32:16;38.60;;;17.67;;
1380;SDS011;684;48.342;10.096;2022-12-18T14:34:45;40.97;;;20.30;;
1380;SDS011;684;48.342;10.096;2022-12-18T14:37:12;46.43;;;18.60;;
1380;SDS011;684;48.342;10.096;2022-12-18T14:39:52;39.33;;;18.17;;
1380;SDS011;684;48.342;10.096;2022-12-18T14:42:21;39.37;;;19.87;;
1380;SDS011;684;48.342;10.096;2022-12-18T14:44:49;37.37;;;18.30;;
1380;SDS011;684;48.342;10.096;2022-12-18T14:47:16;36.03;;;18.10;;
1380;SDS011;684;48.342;10.096;2022-12-18T14:49:50;39.83;;;19.47;;
1380;SDS011;684;48.342;10.096;2022-12-18T14:52:19;32.37;;;17.33;;
1380;SDS011;684;48.342;10.096;2022-12-18T14:54:54;34.20;;;17.20;;
1380;SDS011;684;48.342;10.096;2022-12-18T14:57:21;35.20;;;17.73;;
1380;SDS011;684;48.342;10.096;2022-12-18T14:59:50;34.90;;;17.90;;
1380;SDS011;684;48.342;10.096;2022-12-18T15:02:18;39.27;;;19.80;;
1380;SDS011;684;48.342;10.096;2022-12-18T15:04:48;42.20;;;18.30;;
1380;SDS011;684;48.342;10.096;2022-12-18T15:07:26;40.10;;;18.53;;
1380;SDS011;684;48.342;10.096;2022-12-18T15:10:03;41.13;;;17.97;;
1380;SDS011;684;48.342;10.096;2022-12-18T15:12:36;43.10;;;19.67;;
1380;SDS011;684;48.342;10.096;2022-12-18T15:18:10;33.33;;;16.00;;
1380;SDS011;684;48.342;10.096;2022-12-18T15:20:41;37.83;;;16.50;;
1380;SDS011;684;48.342;10.096;2022-12-18T15:23:12;34.53;;;16.50;;
1380;SDS011;684;48.342;10.096;2022-12-18T15:25:42;37.47;;;17.50;;
1380;SDS011;684;48.342;10.096;2022-12-18T15:28:15;34.77;;;18.23;;